createdAt,value
2023-04-16T00:01:59.718Z,0.20
2023-04-16T00:06:13.341Z,0.45
2023-04-16T00:10:25.782Z,0.60
2023-04-16T00:14:38.349Z,0.63
2023-04-16T00:18:51.040Z,0.73
2023-04-16T00:23:13.500Z,0.60
2023-04-16T00:27:26.001Z,0.57
2023-04-16T00:31:42.754Z,0.40
2023-04-16T00:35:55.260Z,0.25
2023-04-16T00:40:12.647Z,0.45
2023-04-16T00:44:25.077Z,0.82
2023-04-16T00:48:40.638Z,0.70
2023-04-16T00:52:53.109Z,0.50
2023-04-16T00:57:05.572Z,0.55
2023-04-16T01:01:18.093Z,0.50
2023-04-16T01:05:31.212Z,0.95
2023-04-16T01:09:43.677Z,0.80
2023-04-16T01:13:56.248Z,1.00
2023-04-16T01:18:20.673Z,0.77
2023-04-16T01:22:33.256Z,1.10
2023-04-16T01:26:45.701Z,1.15
2023-04-16T01:30:58.144Z,0.90
2023-04-16T01:35:10.612Z,0.52
2023-04-16T01:39:29.148Z,0.73
2023-04-16T01:43:43.253Z,0.57
2023-04-16T01:48:06.186Z,0.90
2023-04-16T01:52:18.718Z,1.25
2023-04-16T01:56:31.263Z,0.82
2023-04-16T02:00:43.785Z,1.00
2023-04-16T02:04:58.177Z,0.73
2023-04-16T02:09:10.898Z,0.70
2023-04-16T02:13:24.218Z,1.00
2023-04-16T02:17:36.889Z,1.13
2023-04-16T02:21:50.020Z,0.90
2023-04-16T02:26:04.400Z,0.80
2023-04-16T02:30:17.470Z,0.80
2023-04-16T02:34:29.906Z,0.52
2023-04-16T02:38:42.358Z,0.60
2023-04-16T02:42:55.482Z,0.85
2023-04-16T02:47:07.926Z,0.90
2023-04-16T02:51:20.369Z,0.57
2023-04-16T02:55:32.821Z,0.63
2023-04-16T02:59:45.308Z,1.02
2023-04-16T03:03:59.997Z,0.80
2023-04-16T03:08:12.676Z,0.25
2023-04-16T03:12:25.185Z,0.90
2023-04-16T03:16:37.666Z,0.90
2023-04-16T03:20:54.184Z,0.40
2023-04-16T03:25:08.150Z,1.08
2023-04-16T03:29:30.664Z,0.55
2023-04-16T03:33:48.779Z,0.77
2023-04-16T03:38:01.346Z,1.10
2023-04-16T03:42:13.751Z,1.00
2023-04-16T03:46:26.262Z,1.30
2023-04-16T03:50:38.804Z,1.00
2023-04-16T03:54:51.421Z,0.80
2023-04-16T03:59:04.036Z,1.35
2023-04-16T04:03:18.046Z,1.10
2023-04-16T04:07:30.719Z,0.90
2023-04-16T04:11:44.111Z,0.55
2023-04-16T04:15:59.598Z,1.35
2023-04-16T04:20:13.056Z,0.80
2023-04-16T04:24:25.491Z,1.05
2023-04-16T04:28:38.030Z,0.75
2023-04-16T04:32:50.642Z,0.50
2023-04-16T04:37:03.345Z,0.90
2023-04-16T04:41:15.800Z,0.70
2023-04-16T04:45:31.169Z,0.77
2023-04-16T04:49:44.342Z,0.75
2023-04-16T04:53:56.784Z,1.05
2023-04-16T04:58:10.464Z,0.50
2023-04-16T05:02:22.963Z,1.13
2023-04-16T05:06:35.489Z,1.00
2023-04-16T05:10:47.905Z,0.90
2023-04-16T05:15:11.220Z,1.10
2023-04-16T05:19:33.681Z,0.88
2023-04-16T05:23:46.215Z,1.15
2023-04-16T05:27:58.650Z,0.60
2023-04-16T05:32:11.600Z,1.75
2023-04-16T05:36:24.137Z,1.63
2023-04-16T05:40:37.512Z,0.73
2023-04-16T05:44:52.004Z,0.98
2023-04-16T05:49:04.504Z,0.65
2023-04-16T05:53:26.990Z,1.00
2023-04-16T05:57:39.423Z,0.50
2023-04-16T06:01:51.905Z,0.90
2023-04-16T06:06:04.479Z,1.00
2023-04-16T06:10:17.051Z,0.30
2023-04-16T06:14:29.580Z,0.95
2023-04-16T06:18:42.367Z,0.77
2023-04-16T06:22:54.872Z,0.80
2023-04-16T06:27:07.373Z,0.60
2023-04-16T06:31:19.863Z,0.60
2023-04-16T06:35:32.413Z,0.60
2023-04-16T06:39:45.068Z,0.80
2023-04-16T06:43:57.490Z,0.80
2023-04-16T06:48:09.924Z,0.40
2023-04-16T06:52:22.479Z,0.38
2023-04-16T06:56:38.223Z,0.50
2023-04-16T07:00:50.726Z,0.60
2023-04-16T07:05:07.529Z,0.55
2023-04-16T07:09:20.015Z,0.40
2023-04-16T07:13:32.474Z,0.50
2023-04-16T07:17:45.115Z,0.20
2023-04-16T07:21:57.548Z,0.15
2023-04-16T07:26:10.081Z,0.35
2023-04-16T07:30:22.565Z,0.20
2023-04-16T07:34:43.776Z,0.30
2023-04-16T07:38:59.132Z,0.15
2023-04-16T07:43:11.750Z,0.17
2023-04-16T07:47:24.314Z,0.10
2023-04-16T07:51:36.813Z,0.10
2023-04-16T07:55:49.323Z,0.00
2023-04-16T08:00:03.060Z,0.10
2023-04-16T08:04:17.988Z,0.20
2023-04-16T08:08:30.920Z,0.20
2023-04-16T08:12:43.413Z,0.20
2023-04-16T08:16:56.001Z,0.50
2023-04-16T08:21:08.427Z,0.20
2023-04-16T08:25:21.477Z,0.10
2023-04-16T08:29:34.028Z,0.20
2023-04-16T08:33:46.674Z,0.15
2023-04-16T08:38:02.259Z,0.22
2023-04-16T08:42:33.682Z,0.20
2023-04-16T08:46:47.662Z,0.17
2023-04-16T08:51:02.324Z,0.25
2023-04-16T08:55:15.641Z,0.10
2023-04-16T08:59:29.382Z,0.32
2023-04-16T09:03:42.609Z,0.20
2023-04-16T09:07:55.721Z,0.00
2023-04-16T09:12:09.736Z,0.32
2023-04-16T09:16:34.822Z,0.20
2023-04-16T09:20:48.691Z,0.05
2023-04-16T09:25:01.265Z,0.10
2023-04-16T09:29:41.992Z,0.20
2023-04-16T09:34:10.567Z,0.25
2023-04-16T09:38:23.121Z,0.20
2023-04-16T09:42:37.953Z,0.35
2023-04-16T09:46:50.383Z,0.13
2023-04-16T09:51:03.146Z,0.17
2023-04-16T09:55:16.187Z,0.20
2023-04-16T09:59:32.023Z,0.05
2023-04-16T10:03:44.740Z,0.15
2023-04-16T10:08:02.894Z,0.20
2023-04-16T10:12:16.914Z,0.10
2023-04-16T10:16:31.616Z,0.13
2023-04-16T10:20:45.397Z,0.20
2023-04-16T10:24:59.366Z,0.17
2023-04-16T10:29:14.875Z,0.30
2023-04-16T10:33:32.114Z,0.10
2023-04-16T10:37:45.830Z,0.10
2023-04-16T10:42:12.855Z,0.10
2023-04-16T10:46:39.667Z,0.10
2023-04-16T10:50:58.308Z,0.10
2023-04-16T10:55:18.483Z,0.10
2023-04-16T10:59:37.060Z,0.13
2023-04-16T11:03:50.011Z,0.20
2023-04-16T11:08:15.374Z,0.10
2023-04-16T11:12:50.117Z,0.10
2023-04-16T11:17:04.862Z,0.10
2023-04-16T11:21:18.038Z,0.30
2023-04-16T11:25:32.361Z,0.20
2023-04-16T11:29:46.967Z,0.10
2023-04-16T11:34:00.928Z,0.03
2023-04-16T11:38:21.925Z,0.10
2023-04-16T11:42:42.158Z,0.10
2023-04-16T11:46:55.622Z,0.17
2023-04-16T11:51:09.282Z,0.20
2023-04-16T11:55:22.410Z,0.17
2023-04-16T12:00:02.029Z,0.10
2023-04-16T12:04:18.489Z,0.20
2023-04-16T12:12:47.601Z,0.20
2023-04-16T12:17:21.182Z,0.20
2023-04-16T12:21:48.605Z,0.10
2023-04-16T12:26:11.064Z,0.32
2023-04-16T12:30:27.066Z,0.20
2023-04-16T12:34:52.165Z,0.10
2023-04-16T12:39:04.680Z,0.30
2023-04-16T12:43:26.504Z,0.20
2023-04-16T12:47:41.813Z,0.40
2023-04-16T12:51:54.314Z,0.20
2023-04-16T12:56:06.896Z,0.30
2023-04-16T13:00:20.877Z,0.30
2023-04-16T13:04:33.350Z,0.22
2023-04-16T13:08:46.683Z,0.28
2023-04-16T13:12:59.153Z,0.20
2023-04-16T13:17:11.884Z,0.20
2023-04-16T13:21:24.597Z,0.30
2023-04-16T13:25:37.562Z,0.30
2023-04-16T13:29:49.959Z,0.40
2023-04-16T13:34:05.583Z,0.20
2023-04-16T13:38:18.697Z,0.30
2023-04-16T13:42:37.597Z,0.30
2023-04-16T13:46:50.486Z,0.30
2023-04-16T13:51:03.732Z,0.20
2023-04-16T13:55:26.286Z,0.10
2023-04-16T13:59:39.024Z,0.08
2023-04-16T14:03:51.955Z,0.25
2023-04-16T14:08:04.472Z,0.30
2023-04-16T14:12:21.490Z,0.30
2023-04-16T14:16:35.430Z,0.30
2023-04-16T14:20:48.757Z,0.35
2023-04-16T14:25:01.888Z,0.10
2023-04-16T14:29:14.469Z,0.35
2023-04-16T14:33:27.170Z,0.25
2023-04-16T14:37:39.802Z,0.30
2023-04-16T14:42:02.251Z,0.20
2023-04-16T14:46:18.357Z,0.13
2023-04-16T14:50:31.047Z,0.20
2023-04-16T14:54:55.587Z,0.30
2023-04-16T14:59:08.782Z,0.40
2023-04-16T15:03:21.737Z,0.15
2023-04-16T15:07:34.234Z,0.30
2023-04-16T15:11:46.985Z,0.20
2023-04-16T15:15:59.486Z,0.40
2023-04-16T15:20:12.731Z,0.35
2023-04-16T15:24:25.418Z,0.30
2023-04-16T15:28:43.496Z,0.30
2023-04-16T15:32:56.413Z,0.30
2023-04-16T15:37:09.160Z,0.30
2023-04-16T15:41:21.710Z,0.10
2023-04-16T15:45:34.389Z,0.50
2023-04-16T15:49:46.897Z,0.50
2023-04-16T15:53:59.449Z,0.30
2023-04-16T15:58:12.294Z,0.38
2023-04-16T16:02:25.014Z,0.35
2023-04-16T16:06:38.893Z,0.50
2023-04-16T16:11:01.382Z,0.20
2023-04-16T16:15:13.828Z,0.10
2023-04-16T16:19:26.603Z,0.40
2023-04-16T16:23:39.069Z,0.47
2023-04-16T16:27:53.587Z,0.47
2023-04-16T16:32:06.246Z,0.43
2023-04-16T16:36:19.098Z,0.30
2023-04-16T16:40:31.849Z,0.30
2023-04-16T16:44:44.306Z,0.60
2023-04-16T16:48:56.739Z,0.40
2023-04-16T16:53:09.250Z,0.50
2023-04-16T16:57:21.794Z,0.10
2023-04-16T17:01:44.182Z,0.40
2023-04-16T17:05:56.722Z,0.20
2023-04-16T17:10:12.059Z,0.25
2023-04-16T17:14:25.205Z,0.28
2023-04-16T17:18:37.677Z,0.45
2023-04-16T17:22:50.297Z,0.28
2023-04-16T17:27:04.911Z,0.30
2023-04-16T17:31:17.889Z,0.40
2023-04-16T17:35:31.946Z,0.20
2023-04-16T17:39:44.866Z,0.25
2023-04-16T17:43:57.357Z,0.20
2023-04-16T17:48:09.790Z,0.50
2023-04-16T17:52:28.040Z,0.22
2023-04-16T17:56:40.514Z,0.32
2023-04-16T18:00:53.009Z,0.30
2023-04-16T18:05:08.029Z,0.10
2023-04-16T18:09:20.619Z,0.45
2023-04-16T18:13:33.025Z,0.57
2023-04-16T18:17:45.622Z,0.38
2023-04-16T18:21:59.532Z,0.15
2023-04-16T18:26:12.752Z,0.30
2023-04-16T18:30:30.273Z,0.30
2023-04-16T18:34:43.242Z,0.40
2023-04-16T18:39:01.578Z,0.17
2023-04-16T18:43:14.416Z,0.43
2023-04-16T18:47:27.038Z,0.30
2023-04-16T18:51:39.517Z,0.17
2023-04-16T18:55:55.446Z,0.30
2023-04-16T19:00:13.580Z,0.32
2023-04-16T19:04:26.105Z,0.20
2023-04-16T19:08:38.608Z,0.45
2023-04-16T19:12:51.122Z,0.32
2023-04-16T19:17:11.267Z,0.30
2023-04-16T19:21:24.398Z,0.20
2023-04-16T19:25:38.094Z,0.30
2023-04-16T19:29:50.524Z,0.50
2023-04-16T19:34:08.206Z,0.20
2023-04-16T19:38:20.689Z,0.20
2023-04-16T19:42:33.569Z,0.30
2023-04-16T19:46:46.397Z,0.40
2023-04-16T19:51:04.203Z,0.30
2023-04-16T19:55:19.936Z,0.75
2023-04-16T19:59:33.081Z,0.30
2023-04-16T20:03:45.684Z,0.38
2023-04-16T20:07:58.606Z,0.30
2023-04-16T20:12:11.244Z,0.40
2023-04-16T20:16:24.100Z,0.25
2023-04-16T20:20:38.565Z,0.30
2023-04-16T20:24:55.747Z,0.40
2023-04-16T20:29:08.332Z,0.17
2023-04-16T20:33:23.862Z,0.65
2023-04-16T20:37:38.913Z,0.45
2023-04-16T20:41:57.351Z,0.32
2023-04-16T20:46:11.526Z,0.47
2023-04-16T20:50:24.088Z,0.25
2023-04-16T20:54:36.580Z,0.28
2023-04-16T20:58:49.007Z,0.25
2023-04-16T21:03:01.784Z,0.47
2023-04-16T21:07:14.423Z,0.40
2023-04-16T21:11:27.031Z,0.63
2023-04-16T21:15:44.217Z,0.10
2023-04-16T21:19:56.966Z,0.20
2023-04-16T21:24:09.504Z,0.28
2023-04-16T21:28:22.817Z,0.25
2023-04-16T21:32:35.364Z,0.10
2023-04-16T21:36:47.856Z,0.17
2023-04-16T21:41:01.810Z,0.28
2023-04-16T21:45:20.335Z,0.75
2023-04-16T21:49:38.586Z,0.20
2023-04-16T21:53:51.087Z,0.13
2023-04-16T21:58:04.690Z,0.70
2023-04-16T22:02:17.349Z,0.60
2023-04-16T22:06:29.925Z,0.22
2023-04-16T22:10:42.376Z,0.60
2023-04-16T22:15:02.403Z,0.40
2023-04-16T22:19:15.682Z,0.45
2023-04-16T22:23:28.136Z,0.40
2023-04-16T22:27:50.651Z,0.38
2023-04-16T22:32:03.404Z,0.73
2023-04-16T22:36:16.392Z,0.40
2023-04-16T22:40:32.599Z,0.17
2023-04-16T22:44:45.036Z,0.30
2023-04-16T22:48:58.578Z,0.43
2023-04-16T22:53:11.259Z,0.17
2023-04-16T22:57:26.275Z,0.30
2023-04-16T23:01:39.337Z,0.50
2023-04-16T23:06:01.803Z,0.30
2023-04-16T23:10:14.299Z,0.22
2023-04-16T23:14:27.445Z,0.32
2023-04-16T23:18:39.872Z,0.50
2023-04-16T23:22:53.541Z,0.47
2023-04-16T23:27:06.257Z,0.32
2023-04-16T23:31:18.724Z,0.20
2023-04-16T23:35:31.480Z,0.30
2023-04-16T23:39:44.016Z,0.20
2023-04-16T23:43:56.541Z,0.35
2023-04-16T23:48:09.054Z,0.40
2023-04-16T23:52:21.643Z,0.50
2023-04-16T23:56:34.112Z,0.10
